createdAt,value
2019-01-19T00:04:22.433Z,9.70
2019-01-19T00:09:39.021Z,9.60
2019-01-19T00:14:40.621Z,11.37
2019-01-19T00:20:07.132Z,10.73
2019-01-19T00:25:21.591Z,9.90
2019-01-19T00:30:29.801Z,12.90
2019-01-19T00:35:47.589Z,10.13
2019-01-19T00:41:08.372Z,11.00
2019-01-19T00:46:16.201Z,12.23
2019-01-19T00:51:30.363Z,9.53
2019-01-19T00:56:53.404Z,8.33
2019-01-19T01:02:07.423Z,9.27
2019-01-19T01:07:18.533Z,12.43
2019-01-19T01:12:40.647Z,8.27
2019-01-19T01:17:43.130Z,14.37
2019-01-19T01:23:00.172Z,9.40
2019-01-19T01:28:22.413Z,8.37
2019-01-19T01:33:50.084Z,7.80
2019-01-19T01:38:55.517Z,6.87
2019-01-19T01:44:17.387Z,8.40
2019-01-19T01:49:25.329Z,8.63
2019-01-19T01:54:36.787Z,8.13
2019-01-19T01:59:51.151Z,8.33
2019-01-19T02:05:11.688Z,8.83
2019-01-19T02:10:38.273Z,10.07
2019-01-19T02:16:02.786Z,10.33
2019-01-19T02:21:07.869Z,11.63
2019-01-19T02:26:40.855Z,11.50
2019-01-19T02:31:49.626Z,12.40
2019-01-19T02:37:18.969Z,9.93
2019-01-19T02:42:27.224Z,9.97
2019-01-19T02:47:38.200Z,8.27
2019-01-19T02:52:46.250Z,7.70
2019-01-19T02:58:06.510Z,10.80
2019-01-19T03:03:23.877Z,12.43
2019-01-19T03:08:37.780Z,7.67
2019-01-19T03:14:01.823Z,9.63
2019-01-19T03:19:36.877Z,9.27
2019-01-19T03:24:44.738Z,8.67
2019-01-19T03:29:55.597Z,10.27
2019-01-19T03:35:03.591Z,10.13
2019-01-19T03:40:35.722Z,8.63
2019-01-19T03:45:40.805Z,8.83
2019-01-19T03:50:55.093Z,7.73
2019-01-19T03:56:12.192Z,8.33
2019-01-19T04:01:41.469Z,8.50
2019-01-19T04:07:09.783Z,11.05
2019-01-19T04:12:33.514Z,8.63
2019-01-19T04:17:44.684Z,8.47
2019-01-19T04:22:45.961Z,8.73
2019-01-19T04:27:47.237Z,8.50
2019-01-19T04:32:48.515Z,9.87
2019-01-19T04:37:49.790Z,9.10
2019-01-19T04:42:51.373Z,9.97
2019-01-19T04:47:53.033Z,10.43
2019-01-19T04:52:54.321Z,9.17
2019-01-19T04:57:55.609Z,8.73
2019-01-19T05:02:56.899Z,7.57
2019-01-19T05:07:58.173Z,7.77
2019-01-19T05:12:59.463Z,8.30
2019-01-19T05:18:01.050Z,8.70
2019-01-19T05:23:02.327Z,12.93
2019-01-19T05:28:03.624Z,9.20
2019-01-19T05:33:05.251Z,8.77
2019-01-19T05:38:06.521Z,8.97
2019-01-19T05:43:08.082Z,7.33
2019-01-19T05:48:09.428Z,9.63
2019-01-19T05:53:11.065Z,9.67
2019-01-19T05:58:12.338Z,13.80
2019-01-19T06:03:13.647Z,15.57
2019-01-19T06:08:14.928Z,12.27
2019-01-19T06:13:16.212Z,12.93
2019-01-19T06:18:17.498Z,13.03
2019-01-19T06:23:18.780Z,12.57
2019-01-19T06:28:20.068Z,13.00
2019-01-19T06:33:21.323Z,13.70
2019-01-19T06:38:22.593Z,11.10
2019-01-19T06:43:23.873Z,18.13
2019-01-19T06:48:25.169Z,21.27
2019-01-19T06:53:26.442Z,18.40
2019-01-19T06:58:27.724Z,16.73
2019-01-19T07:03:29.022Z,15.03
2019-01-19T07:08:30.677Z,11.77
2019-01-19T07:13:31.957Z,11.93
2019-01-19T07:18:33.232Z,12.73
2019-01-19T07:23:34.819Z,17.13
2019-01-19T07:28:36.097Z,14.80
2019-01-19T07:33:37.450Z,14.80
2019-01-19T07:38:38.717Z,18.87
2019-01-19T07:43:40.338Z,15.73
2019-01-19T07:48:41.817Z,18.83
2019-01-19T07:53:43.104Z,19.33
2019-01-19T07:58:44.382Z,17.80
2019-01-19T08:03:45.686Z,17.17
2019-01-19T08:08:46.957Z,17.62
2019-01-19T08:13:48.237Z,17.53
2019-01-19T08:18:49.882Z,21.33
2019-01-19T08:23:51.171Z,20.67
2019-01-19T08:28:55.590Z,17.70
2019-01-19T08:33:56.869Z,25.43
2019-01-19T08:38:58.586Z,45.20
2019-01-19T08:44:00.209Z,28.10
2019-01-19T08:49:01.493Z,23.37
2019-01-19T08:54:03.012Z,21.03
2019-01-19T08:59:04.513Z,24.10
2019-01-19T09:04:05.809Z,19.57
2019-01-19T09:09:07.121Z,21.60
2019-01-19T09:14:08.880Z,20.43
2019-01-19T09:19:10.865Z,16.93
2019-01-19T09:24:13.014Z,18.33
2019-01-19T09:29:14.309Z,17.80
2019-01-19T09:34:15.563Z,20.40
2019-01-19T09:39:16.857Z,20.03
2019-01-19T09:44:18.133Z,21.80
2019-01-19T09:49:19.809Z,18.80
2019-01-19T09:54:21.214Z,15.47
2019-01-19T09:59:22.513Z,13.57
2019-01-19T10:04:23.809Z,12.63
2019-01-19T10:09:25.409Z,12.27
2019-01-19T10:14:26.692Z,12.40
2019-01-19T10:19:28.001Z,13.70
2019-01-19T10:24:29.638Z,13.50
2019-01-19T10:29:30.917Z,14.27
2019-01-19T10:34:32.195Z,15.50
2019-01-19T10:39:33.503Z,12.70
2019-01-19T10:44:34.865Z,14.60
2019-01-19T10:49:36.182Z,11.90
2019-01-19T10:54:37.454Z,12.93
2019-01-19T10:59:39.161Z,12.77
2019-01-19T11:04:40.469Z,12.37
2019-01-19T11:09:42.077Z,14.10
2019-01-19T11:14:43.367Z,12.53
2019-01-19T11:19:44.644Z,11.33
2019-01-19T11:24:46.290Z,11.20
2019-01-19T11:29:47.684Z,13.10
2019-01-19T11:34:48.974Z,17.60
2019-01-19T11:39:50.251Z,23.50
2019-01-19T11:44:51.915Z,23.30
2019-01-19T11:49:53.186Z,22.20
2019-01-19T11:54:54.948Z,23.07
2019-01-19T11:59:56.229Z,19.70
2019-01-19T12:04:57.545Z,19.10
2019-01-19T12:09:58.817Z,23.50
2019-01-19T12:15:00.256Z,21.17
2019-01-19T12:20:04.848Z,15.17
2019-01-19T12:25:09.838Z,14.67
2019-01-19T12:30:23.078Z,13.63
2019-01-19T12:35:24.356Z,14.30
2019-01-19T12:40:27.633Z,12.43
2019-01-19T12:45:35.705Z,14.10
2019-01-19T12:50:37.001Z,16.83
2019-01-19T12:55:38.311Z,12.40
2019-01-19T13:00:40.095Z,11.53
2019-01-19T13:05:47.913Z,10.10
2019-01-19T13:11:05.541Z,10.80
2019-01-19T13:16:16.670Z,12.90
2019-01-19T13:21:43.487Z,11.63
2019-01-19T13:27:10.030Z,12.13
2019-01-19T13:32:33.944Z,12.33
2019-01-19T13:37:42.088Z,13.43
2019-01-19T13:43:02.114Z,16.20
2019-01-19T13:48:16.673Z,17.10
2019-01-19T13:53:28.184Z,16.00
2019-01-19T13:58:42.577Z,19.50
2019-01-19T14:03:47.696Z,16.07
2019-01-19T14:08:56.003Z,15.63
2019-01-19T14:14:15.792Z,17.27
2019-01-19T14:19:38.581Z,16.50
2019-01-19T14:24:52.715Z,17.70
2019-01-19T14:30:19.134Z,17.27
2019-01-19T14:35:42.445Z,16.37
2019-01-19T14:41:04.226Z,16.53
2019-01-19T14:46:12.160Z,16.10
2019-01-19T14:51:29.503Z,16.17
2019-01-19T14:56:43.781Z,19.70
2019-01-19T15:01:58.327Z,19.17
2019-01-19T15:07:30.890Z,19.70
2019-01-19T15:12:38.982Z,23.80
2019-01-19T15:18:06.471Z,24.43
2019-01-19T15:23:14.343Z,23.47
2019-01-19T15:28:40.235Z,27.83
2019-01-19T15:34:01.977Z,27.27
2019-01-19T15:39:31.049Z,38.93
2019-01-19T15:44:36.133Z,67.67
2019-01-19T15:49:59.318Z,70.80
2019-01-19T15:55:22.584Z,42.77
2019-01-19T16:00:49.214Z,40.37
2019-01-19T16:06:09.493Z,73.93
2019-01-19T16:11:38.525Z,72.30
2019-01-19T16:16:55.934Z,50.70
2019-01-19T16:22:24.897Z,46.80
2019-01-19T16:27:47.425Z,44.83
2019-01-19T16:32:58.490Z,44.57
2019-01-19T16:38:12.648Z,38.33
2019-01-19T16:43:20.573Z,43.57
2019-01-19T16:48:57.797Z,39.67
2019-01-19T16:54:06.068Z,28.70
2019-01-19T16:59:35.412Z,30.87
2019-01-19T17:04:49.088Z,35.77
2019-01-19T17:09:54.180Z,33.47
2019-01-19T17:15:19.215Z,33.53
2019-01-19T17:20:32.969Z,53.90
2019-01-19T17:25:47.261Z,46.13
2019-01-19T17:31:03.903Z,42.03
2019-01-19T17:36:20.973Z,39.60
2019-01-19T17:41:41.533Z,48.27
2019-01-19T17:46:52.506Z,48.57
2019-01-19T17:52:03.215Z,46.40
2019-01-19T17:57:22.852Z,41.73
2019-01-19T18:02:47.779Z,43.10
2019-01-19T18:08:11.087Z,33.20
2019-01-19T18:13:34.431Z,34.63
2019-01-19T18:19:12.461Z,32.13
2019-01-19T18:24:25.887Z,35.80
2019-01-19T18:29:44.169Z,52.43
2019-01-19T18:35:06.090Z,53.93
2019-01-19T18:40:20.013Z,40.77
2019-01-19T18:45:28.100Z,34.03
2019-01-19T18:50:50.941Z,33.93
2019-01-19T18:56:14.451Z,37.37
2019-01-19T19:01:46.972Z,51.83
2019-01-19T19:07:14.917Z,54.57
2019-01-19T19:12:38.336Z,35.87
2019-01-19T19:18:16.878Z,42.63
2019-01-19T19:23:30.977Z,43.13
2019-01-19T19:28:36.076Z,42.23
2019-01-19T19:33:50.081Z,35.20
2019-01-19T19:39:14.885Z,42.73
2019-01-19T19:44:42.014Z,51.10
2019-01-19T19:49:53.109Z,51.70
2019-01-19T19:54:54.172Z,36.27
2019-01-19T19:59:56.021Z,31.30
2019-01-19T20:04:57.350Z,57.80
2019-01-19T20:09:58.705Z,59.80
2019-01-19T20:15:01.323Z,32.73
2019-01-19T20:20:05.809Z,38.00
2019-01-19T20:25:07.105Z,42.07
2019-01-19T20:30:12.484Z,32.97
2019-01-19T20:35:14.175Z,30.37
2019-01-19T20:40:15.445Z,26.60
2019-01-19T20:45:16.716Z,31.10
2019-01-19T20:50:18.194Z,29.97
2019-01-19T20:55:19.505Z,35.07
2019-01-19T21:00:21.157Z,44.47
2019-01-19T21:05:22.469Z,34.23
2019-01-19T21:10:23.757Z,61.13
2019-01-19T21:15:26.219Z,36.70
2019-01-19T21:20:27.473Z,32.63
2019-01-19T21:25:28.895Z,35.17
2019-01-19T21:30:30.550Z,31.50
2019-01-19T21:35:32.265Z,54.53
2019-01-19T21:40:38.961Z,34.70
2019-01-19T21:45:37.419Z,29.13
2019-01-19T21:50:39.038Z,27.60
2019-01-19T21:55:40.723Z,36.23
2019-01-19T22:00:41.999Z,35.30
2019-01-19T22:05:49.512Z,42.97
2019-01-19T22:10:46.996Z,33.57
2019-01-19T22:15:48.415Z,38.93
2019-01-19T22:20:49.906Z,37.47
2019-01-19T22:25:51.475Z,35.50
2019-01-19T22:30:52.754Z,33.07
2019-01-19T22:35:54.024Z,41.83
2019-01-19T22:40:55.300Z,38.30
2019-01-19T22:45:56.566Z,43.67
2019-01-19T22:50:58.256Z,43.73
2019-01-19T22:55:59.684Z,30.63
2019-01-19T23:01:06.086Z,38.53
2019-01-19T23:06:07.426Z,37.53
2019-01-19T23:11:08.718Z,32.87
2019-01-19T23:16:10.025Z,37.83
2019-01-19T23:21:11.296Z,32.20
2019-01-19T23:26:12.981Z,33.03
2019-01-19T23:31:14.257Z,26.57
2019-01-19T23:36:15.530Z,30.83
2019-01-19T23:41:16.798Z,31.00
2019-01-19T23:46:18.178Z,34.57
2019-01-19T23:51:19.563Z,35.20
2019-01-19T23:56:20.843Z,34.13
